createdAt,value
2023-04-25T00:00:13.606Z,2.88
2023-04-25T00:03:02.067Z,2.72
2023-04-25T00:05:33.009Z,2.42
2023-04-25T00:08:02.189Z,1.98
2023-04-25T00:10:34.531Z,1.83
2023-04-25T00:13:23.123Z,0.90
2023-04-25T00:15:52.996Z,2.17
2023-04-25T00:18:22.214Z,1.90
2023-04-25T00:20:51.600Z,2.78
2023-04-25T00:23:40.336Z,2.20
2023-04-25T00:26:11.067Z,2.38
2023-04-25T00:28:40.524Z,1.20
2023-04-25T00:31:28.372Z,0.88
2023-04-25T00:33:57.629Z,1.02
2023-04-25T00:36:27.252Z,0.90
2023-04-25T00:38:57.308Z,2.25
2023-04-25T00:41:28.835Z,1.80
2023-04-25T00:43:58.710Z,1.65
2023-04-25T00:46:44.603Z,1.70
2023-04-25T00:49:19.192Z,1.20
2023-04-25T00:51:48.447Z,0.82
2023-04-25T00:54:18.295Z,1.30
2023-04-25T00:57:06.277Z,1.00
2023-04-25T00:59:53.610Z,1.13
2023-04-25T01:02:40.375Z,0.68
2023-04-25T01:05:11.394Z,0.65
2023-04-25T01:07:41.013Z,1.10
2023-04-25T01:10:28.895Z,1.45
2023-04-25T01:13:34.929Z,1.35
2023-04-25T01:16:05.049Z,0.88
2023-04-25T01:18:34.448Z,1.20
2023-04-25T01:21:12.937Z,1.58
2023-04-25T01:23:43.218Z,1.50
2023-04-25T01:26:13.738Z,1.00
2023-04-25T01:28:43.313Z,1.50
2023-04-25T01:31:13.464Z,1.73
2023-04-25T01:33:42.770Z,2.28
2023-04-25T01:36:13.959Z,1.10
2023-04-25T01:38:43.383Z,1.33
2023-04-25T01:41:13.053Z,0.80
2023-04-25T01:43:42.218Z,1.33
2023-04-25T01:46:14.391Z,1.63
2023-04-25T01:48:43.663Z,1.50
2023-04-25T01:51:17.475Z,2.65
2023-04-25T01:53:47.445Z,1.73
2023-04-25T01:56:18.620Z,0.90
2023-04-25T01:58:54.354Z,0.98
2023-04-25T02:01:23.538Z,0.50
2023-04-25T02:03:56.260Z,2.00
2023-04-25T02:06:27.356Z,1.73
2023-04-25T02:08:59.264Z,3.13
2023-04-25T02:11:28.528Z,1.95
2023-04-25T02:13:57.808Z,1.90
2023-04-25T02:16:32.309Z,2.00
2023-04-25T02:19:21.762Z,2.42
2023-04-25T02:21:52.552Z,2.05
2023-04-25T02:24:21.797Z,2.35
2023-04-25T02:27:08.264Z,1.92
2023-04-25T02:29:39.303Z,2.10
2023-04-25T02:32:08.526Z,0.90
2023-04-25T02:34:38.091Z,2.28
2023-04-25T02:37:11.697Z,1.10
2023-04-25T02:39:59.416Z,2.42
2023-04-25T02:42:32.010Z,2.25
2023-04-25T02:45:23.220Z,2.20
2023-04-25T02:47:52.476Z,1.42
2023-04-25T02:50:21.782Z,2.50
2023-04-25T02:52:55.691Z,2.35
2023-04-25T02:55:27.055Z,3.53
2023-04-25T02:57:58.156Z,1.70
2023-04-25T03:00:27.581Z,1.73
2023-04-25T03:02:59.747Z,2.05
2023-04-25T03:05:28.955Z,1.48
2023-04-25T03:08:13.238Z,1.48
2023-04-25T03:10:42.583Z,1.10
2023-04-25T03:13:14.456Z,2.10
2023-04-25T03:15:45.177Z,2.33
2023-04-25T03:18:14.297Z,1.48
2023-04-25T03:21:03.713Z,1.30
2023-04-25T03:23:34.340Z,1.42
2023-04-25T03:26:20.438Z,1.92
2023-04-25T03:28:52.440Z,1.73
2023-04-25T03:31:41.947Z,2.30
2023-04-25T03:34:12.671Z,2.17
2023-04-25T03:36:44.799Z,2.30
2023-04-25T03:39:18.144Z,1.50
2023-04-25T03:41:47.612Z,1.30
2023-04-25T03:44:19.137Z,0.85
2023-04-25T03:47:10.064Z,1.50
2023-04-25T03:49:39.345Z,2.42
2023-04-25T03:52:10.345Z,1.38
2023-04-25T03:54:41.178Z,3.35
2023-04-25T03:57:15.464Z,1.10
2023-04-25T03:59:45.588Z,1.23
2023-04-25T04:02:15.071Z,1.33
2023-04-25T04:04:45.618Z,1.38
2023-04-25T04:07:14.999Z,1.60
2023-04-25T04:10:03.789Z,2.60
2023-04-25T04:12:33.395Z,1.45
2023-04-25T04:15:02.606Z,1.40
2023-04-25T04:17:31.990Z,1.73
2023-04-25T04:20:01.289Z,2.20
2023-04-25T04:22:30.452Z,1.70
2023-04-25T04:25:19.569Z,2.00
2023-04-25T04:28:07.451Z,1.50
2023-04-25T04:30:37.705Z,1.17
2023-04-25T04:33:25.341Z,1.13
2023-04-25T04:36:13.164Z,1.38
2023-04-25T04:38:43.771Z,1.10
2023-04-25T04:41:14.468Z,1.63
2023-04-25T04:43:43.637Z,1.80
2023-04-25T04:46:31.779Z,1.02
2023-04-25T04:49:19.368Z,1.50
2023-04-25T04:51:48.495Z,1.67
2023-04-25T04:54:38.717Z,1.30
2023-04-25T04:57:09.650Z,1.10
2023-04-25T04:59:38.846Z,1.67
2023-04-25T05:02:26.363Z,2.30
2023-04-25T05:04:55.840Z,1.17
2023-04-25T05:07:44.313Z,1.63
2023-04-25T05:10:14.576Z,1.13
2023-04-25T05:12:45.259Z,1.85
2023-04-25T05:15:14.897Z,1.83
2023-04-25T05:17:45.825Z,1.30
2023-04-25T05:20:15.500Z,1.67
2023-04-25T05:22:44.688Z,0.80
2023-04-25T05:25:14.041Z,1.50
2023-04-25T05:27:44.700Z,0.80
2023-04-25T05:30:14.177Z,1.67
2023-04-25T05:32:44.239Z,1.15
2023-04-25T05:35:48.987Z,1.40
2023-04-25T05:38:36.186Z,2.20
2023-04-25T05:41:23.454Z,2.50
2023-04-25T05:43:55.521Z,1.70
2023-04-25T05:46:44.308Z,1.50
2023-04-25T05:49:31.888Z,1.75
2023-04-25T05:52:36.298Z,1.00
2023-04-25T05:55:06.117Z,1.60
2023-04-25T05:57:35.338Z,1.17
2023-04-25T06:00:10.534Z,1.60
2023-04-25T06:02:58.563Z,0.98
2023-04-25T06:05:28.258Z,1.00
2023-04-25T06:07:57.476Z,2.35
2023-04-25T06:10:29.592Z,1.70
2023-04-25T06:12:58.876Z,1.73
2023-04-25T06:15:29.574Z,1.30
2023-04-25T06:18:17.175Z,0.90
2023-04-25T06:20:46.326Z,1.27
2023-04-25T06:23:15.482Z,1.38
2023-04-25T06:26:03.150Z,1.10
2023-04-25T06:28:32.599Z,2.20
2023-04-25T06:33:46.297Z,1.20
2023-04-25T06:36:15.413Z,1.00
2023-04-25T06:38:44.599Z,0.60
2023-04-25T06:41:31.813Z,1.30
2023-04-25T06:44:17.910Z,1.25
2023-04-25T06:46:50.017Z,3.97
2023-04-25T06:49:19.699Z,2.63
2023-04-25T06:51:48.845Z,1.90
2023-04-25T06:54:19.316Z,1.30
2023-04-25T06:56:49.029Z,1.17
2023-04-25T06:59:18.061Z,0.52
2023-04-25T07:01:48.698Z,3.45
2023-04-25T07:04:22.207Z,2.60
2023-04-25T07:07:11.783Z,1.70
2023-04-25T07:09:41.901Z,3.72
2023-04-25T07:12:15.949Z,1.80
2023-04-25T07:15:07.389Z,1.40
2023-04-25T07:17:55.065Z,1.38
2023-04-25T07:20:59.983Z,1.27
2023-04-25T07:23:29.399Z,3.60
2023-04-25T07:25:58.696Z,3.38
2023-04-25T07:28:27.786Z,3.15
2023-04-25T07:30:57.708Z,3.92
2023-04-25T07:33:29.071Z,2.90
2023-04-25T07:36:34.174Z,3.42
2023-04-25T07:41:32.572Z,2.28
2023-04-25T07:44:01.864Z,2.92
2023-04-25T07:46:31.184Z,5.50
2023-04-25T07:49:20.203Z,1.63
2023-04-25T07:51:50.165Z,1.48
2023-04-25T07:54:20.888Z,2.30
2023-04-25T07:57:07.210Z,1.67
2023-04-25T07:59:46.971Z,1.98
2023-04-25T08:02:39.257Z,2.95
2023-04-25T08:05:22.464Z,2.25
2023-04-25T08:08:10.756Z,0.95
2023-04-25T08:10:40.732Z,1.00
2023-04-25T08:13:10.131Z,1.30
2023-04-25T08:15:41.153Z,1.33
2023-04-25T08:18:10.686Z,2.70
2023-04-25T08:20:53.842Z,3.90
2023-04-25T08:23:41.869Z,2.30
2023-04-25T08:26:11.188Z,4.10
2023-04-25T08:28:40.886Z,4.97
2023-04-25T08:31:29.356Z,5.47
2023-04-25T08:34:10.808Z,6.90
2023-04-25T08:36:59.748Z,2.17
2023-04-25T08:39:29.408Z,2.00
2023-04-25T08:42:12.351Z,1.77
2023-04-25T08:44:46.047Z,1.80
2023-04-25T08:47:18.662Z,4.10
2023-04-25T08:49:49.130Z,4.43
2023-04-25T08:52:43.279Z,5.20
2023-04-25T08:55:15.359Z,1.40
2023-04-25T08:57:45.813Z,0.93
2023-04-25T09:00:17.057Z,1.23
2023-04-25T09:02:46.950Z,0.77
2023-04-25T09:08:28.438Z,2.42
2023-04-25T09:10:29.115Z,1.73
2023-04-25T09:10:57.692Z,3.40
2023-04-25T09:13:49.255Z,2.88
2023-04-25T09:16:20.453Z,3.95
2023-04-25T09:19:08.412Z,1.65
2023-04-25T09:21:55.277Z,1.83
2023-04-25T09:24:35.888Z,2.75
2023-04-25T09:27:07.844Z,4.40
2023-04-25T09:29:39.285Z,2.33
2023-04-25T09:32:37.627Z,1.70
2023-04-25T09:35:11.053Z,1.90
2023-04-25T09:37:40.850Z,1.67
2023-04-25T09:40:49.950Z,1.58
2023-04-25T09:43:23.586Z,1.13
2023-04-25T09:46:04.515Z,2.92
2023-04-25T09:48:33.779Z,2.22
2023-04-25T09:51:28.794Z,1.45
2023-04-25T09:54:17.164Z,0.98
2023-04-25T09:57:09.172Z,1.00
2023-04-25T09:59:42.670Z,1.40
2023-04-25T10:02:13.748Z,1.60
2023-04-25T10:04:44.644Z,1.92
2023-04-25T10:07:14.953Z,2.45
2023-04-25T10:09:47.271Z,1.90
2023-04-25T10:12:19.126Z,3.00
2023-04-25T10:14:50.165Z,2.83
2023-04-25T10:17:20.353Z,2.90
2023-04-25T10:19:50.107Z,2.17
2023-04-25T10:22:26.410Z,2.58
2023-04-25T10:24:56.426Z,0.82
2023-04-25T10:27:27.854Z,0.70
2023-04-25T10:30:06.223Z,1.48
2023-04-25T10:32:56.469Z,1.30
2023-04-25T10:35:28.801Z,1.80
2023-04-25T10:38:17.118Z,1.60
2023-04-25T10:41:06.974Z,1.60
2023-04-25T10:43:45.148Z,0.80
2023-04-25T10:46:37.708Z,1.30
2023-04-25T10:49:07.216Z,2.03
2023-04-25T10:51:54.539Z,4.05
2023-04-25T10:54:28.903Z,4.97
2023-04-25T10:57:03.400Z,5.60
2023-04-25T10:59:37.798Z,5.75
2023-04-25T11:02:18.639Z,7.05
2023-04-25T11:04:48.703Z,8.07
2023-04-25T11:07:27.162Z,9.25
2023-04-25T11:09:58.159Z,8.73
2023-04-25T11:12:28.002Z,9.27
2023-04-25T11:15:23.988Z,4.93
2023-04-25T11:17:54.759Z,3.90
2023-04-25T11:20:24.966Z,3.35
2023-04-25T11:22:54.476Z,1.50
2023-04-25T11:25:26.058Z,1.50
2023-04-25T11:27:56.080Z,1.45
2023-04-25T11:30:50.693Z,1.65
2023-04-25T11:33:20.119Z,1.90
2023-04-25T11:35:49.414Z,2.67
2023-04-25T11:38:19.237Z,2.10
2023-04-25T11:40:53.808Z,1.75
2023-04-25T11:43:24.233Z,1.73
2023-04-25T11:45:55.082Z,1.60
2023-04-25T11:48:26.144Z,2.63
2023-04-25T11:50:56.976Z,2.72
2023-04-25T11:53:44.421Z,4.45
2023-04-25T11:56:32.276Z,2.50
2023-04-25T11:59:03.655Z,2.72
2023-04-25T12:01:35.963Z,3.08
2023-04-25T12:04:16.054Z,2.47
2023-04-25T12:06:48.109Z,3.33
2023-04-25T12:09:36.320Z,2.53
2023-04-25T12:12:05.580Z,3.17
2023-04-25T12:14:36.229Z,2.60
2023-04-25T12:17:09.526Z,1.98
2023-04-25T12:19:42.046Z,2.00
2023-04-25T12:22:40.607Z,1.90
2023-04-25T12:25:10.874Z,2.10
2023-04-25T12:27:42.428Z,2.72
2023-04-25T12:30:31.301Z,3.53
2023-04-25T12:33:02.410Z,1.50
2023-04-25T12:35:32.257Z,1.60
2023-04-25T12:38:18.522Z,3.67
2023-04-25T12:40:47.661Z,3.67
2023-04-25T12:43:16.690Z,3.47
2023-04-25T12:46:03.695Z,4.78
2023-04-25T12:48:34.398Z,6.20
2023-04-25T12:51:03.497Z,5.55
2023-04-25T12:53:50.038Z,6.20
2023-04-25T12:56:37.962Z,3.97
2023-04-25T12:59:07.151Z,3.72
2023-04-25T13:01:42.953Z,5.10
2023-04-25T13:04:32.261Z,6.05
2023-04-25T13:07:01.568Z,10.45
2023-04-25T13:09:47.712Z,9.90
2023-04-25T13:12:35.250Z,9.82
2023-04-25T13:15:04.657Z,9.10
2023-04-25T13:17:36.638Z,6.55
2023-04-25T13:20:10.193Z,4.85
2023-04-25T13:22:58.199Z,3.30
2023-04-25T13:25:28.274Z,2.63
2023-04-25T13:28:14.747Z,2.33
2023-04-25T13:30:44.422Z,1.67
2023-04-25T13:33:13.638Z,2.90
2023-04-25T13:35:45.086Z,2.20
2023-04-25T13:38:14.235Z,2.47
2023-04-25T13:40:43.528Z,3.10
2023-04-25T13:43:12.723Z,4.43
2023-04-25T13:45:42.709Z,4.57
2023-04-25T13:48:11.996Z,6.95
2023-04-25T13:50:45.682Z,9.18
2023-04-25T13:53:31.853Z,13.30
2023-04-25T13:57:00.551Z,13.25
2023-04-25T13:59:32.273Z,17.70
2023-04-25T14:02:01.694Z,22.45
2023-04-25T14:04:31.441Z,24.17
2023-04-25T14:07:02.378Z,23.33
2023-04-25T14:09:32.629Z,21.90
2023-04-25T14:12:20.341Z,28.60
2023-04-25T14:14:49.558Z,33.05
2023-04-25T14:17:36.712Z,23.25
2023-04-25T14:20:26.986Z,25.27
2023-04-25T14:22:59.433Z,24.90
2023-04-25T14:25:35.748Z,23.40
2023-04-25T14:28:05.054Z,24.80
2023-04-25T14:30:34.430Z,24.15
2023-04-25T14:33:03.723Z,24.27
2023-04-25T14:35:33.063Z,23.80
2023-04-25T14:38:04.685Z,22.63
2023-04-25T14:40:51.915Z,21.02
2023-04-25T14:43:23.601Z,17.48
2023-04-25T14:45:52.692Z,23.27
2023-04-25T14:48:25.113Z,28.38
2023-04-25T14:50:54.478Z,24.67
2023-04-25T14:53:25.311Z,25.58
2023-04-25T14:55:58.171Z,24.70
2023-04-25T14:58:27.496Z,25.95
2023-04-25T15:00:57.262Z,24.45
2023-04-25T15:03:26.633Z,25.10
2023-04-25T15:05:57.814Z,23.52
2023-04-25T15:08:29.912Z,19.40
2023-04-25T15:11:02.206Z,20.42
2023-04-25T15:13:31.456Z,23.60
2023-04-25T15:16:16.299Z,23.77
2023-04-25T15:18:52.350Z,24.75
2023-04-25T15:23:52.996Z,27.48
2023-04-25T15:26:22.688Z,32.22
2023-04-25T15:28:55.284Z,39.08
2023-04-25T15:31:28.565Z,42.88
2023-04-25T15:36:29.276Z,43.30
2023-04-25T15:38:59.936Z,36.67
2023-04-25T15:41:29.333Z,39.92
2023-04-25T15:44:16.790Z,37.00
2023-04-25T15:47:04.241Z,33.40
2023-04-25T15:49:50.265Z,31.98
2023-04-25T15:52:22.303Z,25.70
2023-04-25T15:55:14.840Z,28.50
2023-04-25T15:57:46.943Z,26.17
2023-04-25T16:00:18.107Z,18.20
2023-04-25T16:02:48.847Z,17.95
2023-04-25T16:05:36.482Z,16.33
2023-04-25T16:08:06.502Z,14.20
2023-04-25T16:10:37.462Z,13.80
2023-04-25T16:13:06.665Z,14.10
2023-04-25T16:15:35.972Z,13.23
2023-04-25T16:18:05.480Z,12.95
2023-04-25T16:20:35.034Z,12.27
2023-04-25T16:23:05.277Z,13.65
2023-04-25T16:25:53.378Z,12.50
2023-04-25T16:28:25.527Z,13.65
2023-04-25T16:30:54.716Z,13.75
2023-04-25T16:33:24.040Z,15.23
2023-04-25T16:35:53.472Z,14.18
2023-04-25T16:38:23.102Z,14.70
2023-04-25T16:41:13.639Z,15.18
2023-04-25T16:43:42.875Z,16.45
2023-04-25T16:46:12.244Z,17.30
2023-04-25T16:48:41.436Z,21.38
2023-04-25T16:51:10.552Z,20.40
2023-04-25T16:53:39.757Z,21.48
2023-04-25T16:56:09.565Z,20.45
2023-04-25T16:58:40.358Z,20.42
2023-04-25T17:01:28.051Z,16.70
2023-04-25T17:04:15.863Z,18.48
2023-04-25T17:06:45.138Z,18.88
2023-04-25T17:09:14.324Z,13.23
2023-04-25T17:11:43.574Z,15.68
2023-04-25T17:14:14.267Z,14.50
2023-04-25T17:16:43.460Z,13.00
2023-04-25T17:19:12.723Z,13.18
2023-04-25T17:21:59.976Z,8.02
2023-04-25T17:24:29.233Z,9.85
2023-04-25T17:26:58.460Z,8.90
2023-04-25T17:29:29.148Z,8.48
2023-04-25T17:32:17.571Z,8.77
2023-04-25T17:35:04.711Z,8.98
2023-04-25T17:37:34.215Z,10.10
2023-04-25T17:40:05.466Z,8.25
2023-04-25T17:42:51.784Z,10.00
2023-04-25T17:45:40.785Z,9.55
2023-04-25T17:48:10.037Z,13.75
2023-04-25T17:50:39.254Z,12.95
2023-04-25T17:53:08.500Z,11.75
2023-04-25T17:55:37.794Z,10.30
2023-04-25T17:58:07.194Z,10.52
2023-04-25T18:00:37.995Z,8.68
2023-04-25T18:03:07.487Z,29.65
2023-04-25T18:05:37.049Z,8.00
2023-04-25T18:08:10.237Z,6.05
2023-04-25T18:10:39.761Z,6.28
2023-04-25T18:13:09.539Z,5.47
2023-04-25T18:15:40.264Z,5.47
2023-04-25T18:18:26.273Z,5.60
2023-04-25T18:20:55.458Z,5.50
2023-04-25T18:23:41.654Z,5.00
2023-04-25T18:26:10.828Z,6.03
2023-04-25T18:28:40.088Z,5.90
2023-04-25T18:31:12.125Z,4.70
2023-04-25T18:33:58.244Z,4.43
2023-04-25T18:36:27.901Z,4.05
2023-04-25T18:39:01.146Z,4.63
2023-04-25T18:41:57.167Z,4.78
2023-04-25T18:44:32.644Z,3.90
2023-04-25T18:47:03.312Z,4.00
2023-04-25T18:49:32.823Z,4.13
2023-04-25T18:52:04.025Z,4.70
2023-04-25T18:54:51.817Z,4.15
2023-04-25T18:57:21.350Z,3.95
2023-04-25T18:59:50.545Z,4.10
2023-04-25T19:02:38.232Z,3.78
2023-04-25T19:05:08.397Z,3.88
2023-04-25T19:07:57.580Z,4.43
2023-04-25T19:10:26.990Z,5.13
2023-04-25T19:12:56.293Z,4.00
2023-04-25T19:15:25.491Z,4.45
2023-04-25T19:18:15.165Z,4.70
2023-04-25T19:21:02.682Z,4.78
2023-04-25T19:23:32.150Z,5.22
2023-04-25T19:26:19.587Z,5.30
2023-04-25T19:28:48.756Z,5.63
2023-04-25T19:31:35.576Z,5.97
2023-04-25T19:34:25.123Z,5.82
2023-04-25T19:36:54.737Z,6.50
2023-04-25T19:39:24.154Z,6.70
2023-04-25T19:41:53.824Z,6.18
2023-04-25T19:44:23.094Z,6.38
2023-04-25T19:47:11.667Z,6.72
2023-04-25T19:49:42.440Z,8.40
2023-04-25T19:52:15.322Z,8.95
2023-04-25T19:54:45.771Z,8.77
2023-04-25T19:57:15.456Z,7.93
2023-04-25T19:59:48.489Z,7.13
2023-04-25T20:02:18.850Z,7.25
2023-04-25T20:05:25.043Z,6.88
2023-04-25T20:07:54.185Z,6.72
2023-04-25T20:10:23.552Z,6.43
2023-04-25T20:13:29.417Z,6.20
2023-04-25T20:16:01.252Z,7.35
2023-04-25T20:18:31.836Z,9.05
2023-04-25T20:21:03.500Z,11.63
2023-04-25T20:23:32.798Z,9.55
2023-04-25T20:26:02.360Z,9.07
2023-04-25T20:28:51.658Z,8.07
2023-04-25T20:31:21.392Z,8.07
2023-04-25T20:33:50.758Z,7.55
2023-04-25T20:36:21.453Z,8.30
2023-04-25T20:39:07.825Z,7.60
2023-04-25T20:41:38.069Z,8.35
2023-04-25T20:44:08.190Z,8.45
2023-04-25T20:46:54.109Z,7.75
2023-04-25T20:49:41.213Z,5.93
2023-04-25T20:52:11.939Z,6.70
2023-04-25T20:54:41.135Z,6.00
2023-04-25T20:57:10.335Z,5.43
2023-04-25T20:59:39.612Z,5.30
2023-04-25T21:02:27.209Z,7.25
2023-04-25T21:04:56.414Z,8.13
2023-04-25T21:07:27.229Z,8.15
2023-04-25T21:09:56.419Z,9.30
2023-04-25T21:12:25.573Z,12.70
2023-04-25T21:15:15.024Z,13.18
2023-04-25T21:17:44.215Z,13.85
2023-04-25T21:20:14.145Z,12.68
2023-04-25T21:22:50.430Z,11.55
2023-04-25T21:25:39.260Z,11.88
2023-04-25T21:28:26.493Z,10.18
2023-04-25T21:30:55.949Z,10.15
2023-04-25T21:34:01.832Z,8.48
2023-04-25T21:36:49.209Z,12.63
2023-04-25T21:39:20.287Z,11.50
2023-04-25T21:41:49.551Z,13.50
2023-04-25T21:44:18.944Z,13.65
2023-04-25T21:47:06.317Z,13.35
2023-04-25T21:49:53.525Z,13.60
2023-04-25T21:52:23.052Z,13.77
2023-04-25T21:54:53.778Z,17.70
2023-04-25T21:57:23.230Z,20.10
2023-04-25T21:59:52.486Z,19.40
2023-04-25T22:02:38.584Z,13.27
2023-04-25T22:05:44.148Z,10.88
2023-04-25T22:08:13.698Z,12.00
2023-04-25T22:10:44.462Z,11.00
2023-04-25T22:13:13.616Z,10.18
2023-04-25T22:15:46.321Z,8.43
2023-04-25T22:18:16.616Z,10.27
2023-04-25T22:20:45.945Z,9.13
2023-04-25T22:23:15.131Z,10.02
2023-04-25T22:26:21.395Z,8.82
2023-04-25T22:29:07.339Z,9.45
2023-04-25T22:31:36.722Z,10.65
2023-04-25T22:34:06.007Z,14.25
2023-04-25T22:36:35.256Z,12.93
2023-04-25T22:39:22.667Z,13.23
2023-04-25T22:42:11.981Z,13.45
2023-04-25T22:44:41.178Z,12.15
2023-04-25T22:47:10.740Z,12.05
2023-04-25T22:49:39.955Z,11.07
2023-04-25T22:52:09.940Z,10.15
2023-04-25T22:54:39.887Z,12.07
2023-04-25T22:57:10.597Z,10.75
2023-04-25T22:59:39.782Z,10.15
2023-04-25T23:02:10.047Z,10.02
2023-04-25T23:04:39.336Z,9.13
2023-04-25T23:07:26.866Z,8.68
2023-04-25T23:10:14.595Z,8.45
2023-04-25T23:12:45.314Z,8.38
2023-04-25T23:15:15.111Z,8.70
2023-04-25T23:17:44.298Z,8.95
2023-04-25T23:20:16.227Z,10.93
2023-04-25T23:22:45.458Z,10.07
2023-04-25T23:25:15.355Z,9.25
2023-04-25T23:27:45.960Z,10.65
2023-04-25T23:30:16.031Z,10.20
2023-04-25T23:33:02.476Z,10.27
2023-04-25T23:35:31.758Z,12.70
2023-04-25T23:38:00.956Z,11.95
2023-04-25T23:40:49.102Z,11.38
2023-04-25T23:43:19.829Z,12.10
2023-04-25T23:45:48.981Z,11.93
2023-04-25T23:48:18.421Z,13.70
2023-04-25T23:51:05.429Z,13.20
2023-04-25T23:53:34.649Z,13.70
2023-04-25T23:56:05.698Z,15.10
2023-04-25T23:58:37.142Z,15.95
